Union Hill, IL (60969)

12:14 PM CST on February 14, 2016 (GMT -0600)
Union Hill | | Change Station
CLOSE
Current Station
Personal Weather Station
Location: Union Hill, IL
Elevation: 623 ft
Nearby Weather Stations

Elev 623 ft 41.11 °N, 88.15 °W | Updated 4 minutes ago

Snow
Snow
17.0 °F
Feels Like 7 °F
N
8.0
Wind Variable Wind from SE
Gusts 8.0 mph

Today
High -- | Low -- °F
--% Chance of Precip.
Yesterday
High -- | Low -- °F
Precip. -- in
Pressure 30.22 in
Visibility 0.5 miles
Clouds Overcast 900 ft
Windchill 7 °F
Dew Point 15 °F
Humidity 91%
Rainfall 0.00 in
Snow Depth Not available.
6:49 AM 5:25 PM
Waxing Crescent, 44% visible
METAR KIKK 141755Z AUTO 11011KT 1/2SM -SN OVC009 M08/M10 A3022 RMK AO2 T10821104 11076 21095
Pressure 30.22 in
Visibility 0.5 miles
Clouds Overcast 900 ft
Windchill 7 °F
Dew Point 15 °F
Humidity 91%
Rainfall 0.00 in
Snow Depth Not available.
6:49 AM 5:25 PM
Waxing Crescent, 44% visible
METAR KIKK 141755Z AUTO 11011KT 1/2SM -SN OVC009 M08/M10 A3022 RMK AO2 T10821104 11076 21095

10-Day Weather Forecast

Almanac

Astronomy

Feb. 14, 2016 Rise Set
Actual Time
Civil Twilight
Nautical Twilight
Astronomical Twilight
Moon
Length of Visible Light
Length of Day
Tomorrow will be .
, % of the Moon is Illuminated

Today's Extremes

State Highs State Lows

Community

WunderPhotos

Upload Photos

1,892,867 photos uploaded!

WunderBlog® & News

Nearby

Air Quality

  Air Quality AQ Index Pollutant
Not available.

Snow Depth

Station Depth Elevation

Earthquake Activity

City Distance Mag. Time & Date
Minimum magnitude displayed is 2.5.

Coastal Water Temperatures

Place Temperature

Stations

Nearby Weather Stations

Station Location Temp. Windchill Dew Point Humidity Wind Precip. Elev Updated Type
                   

Watches & Warnings

There are currently no watches in effect.